Time;durP1;ratioP1;P1;durP2;ratioP2;P2;SDS_P1;SDS_P2;PMS_P1;PMS_P2;Temp;Humidity;BMP_temperature;BMP_pressure;BME280_temperature;BME280_humidity;BME280_pressure;Samples;Min_cycle;Max_cycle;Signal;HPM_P1;HPM_P2
2023/06/05 00:01:35;;;;;;;;;;;;;;;13.22;70.12;102183.41;5042717;28;1287;-78
2023/06/05 00:04:01;;;;;;;;;;;;;;;13.16;70.53;102189.03;5039581;28;1247;-80
2023/06/05 00:06:26;;;;;;;;;;;;;;;13.14;69.00;102190.94;5036726;28;1220;-78
2023/06/05 00:08:51;;;;;;;;;;;;;;;13.11;69.52;102185.91;5044824;28;1213;-79
2023/06/05 00:11:16;;;;;;;;;;;;;;;13.12;70.48;102187.56;5045064;28;1642;-78
2023/06/05 00:13:41;;;;;;;;;;;;;;;13.09;69.46;102185.22;5047691;28;1201;-78
2023/06/05 00:16:07;;;;;;;;;;;;;;;13.07;69.41;102189.66;5045477;28;1902;-78
2023/06/05 00:18:33;;;;;;;;;;;;;;;13.03;69.52;102188.25;5047499;28;1364;-79
2023/06/05 00:20:58;;;;;;;;;;;;;;;13.04;69.83;102195.13;5047753;28;1304;-78
2023/06/05 00:23:23;;;;;;;;;;;;;;;13.02;70.43;102183.97;5042706;28;1189;-79
2023/06/05 00:25:48;;;;;;;;;;;;;;;12.96;71.66;102186.97;5048055;28;1304;-78
2023/06/05 00:28:13;;;;;;;;;;;;;;;12.95;69.33;102195.75;5049842;28;1300;-79
2023/06/05 00:30:39;;;;;;;;;;;;;;;12.93;69.71;102188.03;5047191;28;1498;-78
2023/06/05 00:33:04;;;;;;;;;;;;;;;12.89;70.82;102185.75;5051199;28;1351;-78
2023/06/05 00:35:29;;;;;;;;;;;;;;;12.87;71.28;102185.03;5043443;28;1902;-79
2023/06/05 00:37:56;;;;;;;;;;;;;;;12.74;71.36;102177.25;5047112;28;1265;-78
2023/06/05 00:40:21;;;;;;;;;;;;;;;12.69;72.44;102192.34;5048512;28;1640;-78
2023/06/05 00:42:46;;;;;;;;;;;;;;;12.56;74.39;102184.56;5054236;28;1416;-78
2023/06/05 00:45:11;;;;;;;;;;;;;;;12.43;73.34;102178.50;5040291;28;1193;-79
2023/06/05 00:47:37;;;;;;;;;;;;;;;12.43;72.51;102188.91;5049237;28;1249;-78
2023/06/05 00:50:03;;;;;;;;;;;;;;;12.45;73.38;102193.09;5051880;28;1605;-78
2023/06/05 00:52:28;;;;;;;;;;;;;;;12.46;72.91;102186.94;5049540;28;1291;-78
2023/06/05 00:54:53;;;;;;;;;;;;;;;12.47;71.86;102190.38;5047934;28;1400;-78
2023/06/05 00:57:19;;;;;;;;;;;;;;;12.47;73.20;102187.78;5047320;28;1957;-78
2023/06/05 00:59:45;;;;;;;;;;;;;;;12.40;73.87;102187.38;5045600;28;1135;-78
2023/06/05 01:02:12;;;;;;;;;;;;;;;12.38;72.24;102185.78;5043624;28;1218;-78
2023/06/05 01:04:40;;;;;;;;;;;;;;;12.36;73.08;102190.28;5043551;28;1217;-77
2023/06/05 01:07:07;;;;;;;;;;;;;;;12.30;73.76;102181.09;5041680;28;1278;-77
2023/06/05 01:09:32;;;;;;;;;;;;;;;12.25;73.46;102185.78;5044253;28;1499;-77
2023/06/05 01:12:05;;;;;;;;;;;;;;;12.24;75.08;102181.53;5042591;28;1254;-78
2023/06/05 01:14:32;;;;;;;;;;;;;;;12.19;74.83;102176.63;5050880;28;1328;-78
2023/06/05 01:17:00;;;;;;;;;;;;;;;12.15;74.16;102169.94;5048182;28;1949;-77
2023/06/05 01:19:28;;;;;;;;;;;;;;;12.13;74.69;102177.03;5041140;28;1394;-77
2023/06/05 01:21:55;;;;;;;;;;;;;;;12.14;74.71;102178.69;5038154;28;1377;-78
2023/06/05 01:24:22;;;;;;;;;;;;;;;12.10;73.88;102179.84;5040839;28;1137;-78
2023/06/05 01:26:52;;;;;;;;;;;;;;;12.10;74.34;102172.03;5043776;28;1472;-77
2023/06/05 01:29:20;;;;;;;;;;;;;;;12.07;77.00;102167.03;5049966;28;1345;-76
2023/06/05 01:31:46;;;;;;;;;;;;;;;12.03;74.50;102175.97;5049934;28;1573;-77
2023/06/05 01:34:15;;;;;;;;;;;;;;;12.02;74.73;102165.69;5051237;28;1262;-77
2023/06/05 01:36:41;;;;;;;;;;;;;;;12.01;74.84;102171.81;5049287;28;1898;-78
2023/06/05 01:39:07;;;;;;;;;;;;;;;11.96;76.43;102179.91;5043455;28;1195;-77
2023/06/05 01:41:32;;;;;;;;;;;;;;;11.90;74.79;102164.72;5045581;28;1275;-77
2023/06/05 01:43:58;;;;;;;;;;;;;;;11.87;76.32;102167.50;5045074;28;1402;-78
2023/06/05 01:46:24;;;;;;;;;;;;;;;11.89;74.78;102163.06;5046817;28;1296;-77
2023/06/05 01:48:51;;;;;;;;;;;;;;;11.89;76.23;102168.25;5047278;28;1290;-77
2023/06/05 01:51:16;;;;;;;;;;;;;;;11.81;75.87;102163.53;5039609;28;980;-77
2023/06/05 01:53:41;;;;;;;;;;;;;;;11.81;76.15;102170.47;5048001;28;1213;-77
2023/06/05 01:56:08;;;;;;;;;;;;;;;11.81;76.24;102165.28;5039515;28;1890;-77
2023/06/05 01:58:33;;;;;;;;;;;;;;;11.78;75.61;102160.28;5046964;28;1211;-77
2023/06/05 02:00:58;;;;;;;;;;;;;;;11.77;76.28;102158.63;5047294;28;1574;-77
2023/06/05 02:03:24;;;;;;;;;;;;;;;11.73;75.76;102157.16;5043379;28;1542;-77
2023/06/05 02:05:51;;;;;;;;;;;;;;;11.72;75.89;102165.91;5044677;28;1117;-78
2023/06/05 02:08:22;;;;;;;;;;;;;;;11.74;76.40;102164.03;5043762;28;1365;-78
2023/06/05 02:10:48;;;;;;;;;;;;;;;11.71;77.06;102159.88;5043763;28;1383;-77
2023/06/05 02:13:18;;;;;;;;;;;;;;;11.67;75.80;102161.81;5044839;28;1573;-77
2023/06/05 02:15:44;;;;;;;;;;;;;;;11.68;76.61;102149.66;5046707;28;1971;-77
2023/06/05 02:18:10;;;;;;;;;;;;;;;11.58;78.07;102149.41;5041613;28;1644;-77
2023/06/05 02:20:35;;;;;;;;;;;;;;;11.51;77.70;102148.16;5037988;28;1607;-77
2023/06/05 02:23:01;;;;;;;;;;;;;;;11.49;77.64;102144.81;5045358;28;1378;-77
2023/06/05 02:25:26;;;;;;;;;;;;;;;11.49;77.43;102137.03;5046480;28;1346;-77
2023/06/05 02:27:53;;;;;;;;;;;;;;;11.48;76.74;102130.16;5045702;28;1437;-77
2023/06/05 02:30:19;;;;;;;;;;;;;;;11.49;78.44;102147.44;5045935;28;1246;-77
2023/06/05 02:32:44;;;;;;;;;;;;;;;11.40;80.00;102135.00;5049557;28;1363;-78
2023/06/05 02:35:10;;;;;;;;;;;;;;;11.36;77.99;102139.59;5046135;28;1141;-77
2023/06/05 02:37:37;;;;;;;;;;;;;;;11.35;77.88;102142.25;5039407;28;1984;-77
2023/06/05 02:40:03;;;;;;;;;;;;;;;11.29;78.92;102137.47;5046852;28;1247;-77
2023/06/05 02:42:29;;;;;;;;;;;;;;;11.26;78.79;102137.66;5045243;28;1310;-77
2023/06/05 02:44:54;;;;;;;;;;;;;;;11.25;77.63;102143.81;5041036;28;1236;-77
2023/06/05 02:47:19;;;;;;;;;;;;;;;11.23;77.71;102127.47;5047285;28;1228;-78
2023/06/05 02:49:45;;;;;;;;;;;;;;;11.25;77.46;102130.81;5043869;28;1406;-78
2023/06/05 02:52:10;;;;;;;;;;;;;;;11.28;77.45;102141.00;5046238;28;1623;-78
2023/06/05 02:54:35;;;;;;;;;;;;;;;11.23;79.10;102135.25;5044963;28;1500;-77
2023/06/05 02:57:01;;;;;;;;;;;;;;;11.21;78.89;102119.78;5042922;28;1930;-77
2023/06/05 02:59:27;;;;;;;;;;;;;;;11.14;80.01;102139.28;5046896;28;1294;-77
2023/06/05 03:01:52;;;;;;;;;;;;;;;11.07;80.03;102136.25;5043640;28;1349;-77
2023/06/05 03:04:20;;;;;;;;;;;;;;;11.07;80.41;102130.22;5038169;28;1224;-77
2023/06/05 03:06:47;;;;;;;;;;;;;;;11.00;80.65;102127.16;5052388;28;1284;-77
2023/06/05 03:09:12;;;;;;;;;;;;;;;10.99;80.59;102130.69;5045590;28;1326;-77
2023/06/05 03:11:37;;;;;;;;;;;;;;;10.99;79.53;102125.47;5044572;28;1262;-77
2023/06/05 03:14:02;;;;;;;;;;;;;;;10.96;80.42;102120.50;5047741;28;1212;-77
2023/06/05 03:16:33;;;;;;;;;;;;;;;10.87;80.12;102121.88;5047125;28;1902;-77
2023/06/05 03:18:58;;;;;;;;;;;;;;;10.85;80.06;102128.13;5039383;28;1347;-76
2023/06/05 03:21:23;;;;;;;;;;;;;;;10.87;80.75;102128.84;5042110;28;1258;-78
2023/06/05 03:23:48;;;;;;;;;;;;;;;10.85;81.48;102133.31;5044770;28;1463;-77
2023/06/05 03:26:14;;;;;;;;;;;;;;;10.81;80.40;102121.44;5040863;28;1213;-77
2023/06/05 03:28:39;;;;;;;;;;;;;;;10.78;80.75;102129.41;5046196;28;1263;-77
2023/06/05 03:31:04;;;;;;;;;;;;;;;10.75;79.89;102127.84;5042387;28;1398;-77
2023/06/05 03:33:30;;;;;;;;;;;;;;;10.75;80.94;102127.00;5043636;28;1611;-77
2023/06/05 03:35:55;;;;;;;;;;;;;;;10.73;80.68;102128.88;5045507;28;1949;-77
2023/06/05 03:38:20;;;;;;;;;;;;;;;10.73;80.81;102118.50;5036604;28;1274;-78
2023/06/05 03:40:46;;;;;;;;;;;;;;;10.74;81.48;102118.41;5042714;28;1590;-77
2023/06/05 03:43:11;;;;;;;;;;;;;;;10.75;80.70;102122.66;5040793;28;1376;-77
2023/06/05 03:45:38;;;;;;;;;;;;;;;10.73;82.05;102128.88;5040875;28;1395;-77
2023/06/05 03:48:03;;;;;;;;;;;;;;;10.70;81.54;102129.06;5050343;28;1242;-78
2023/06/05 03:50:29;;;;;;;;;;;;;;;10.67;82.17;102129.22;5044187;28;1327;-77
2023/06/05 03:53:01;;;;;;;;;;;;;;;10.68;81.51;102121.38;5048512;28;1457;-77
2023/06/05 03:55:35;;;;;;;;;;;;;;;10.70;81.13;102123.88;5046428;28;1196;-77
2023/06/05 03:58:02;;;;;;;;;;;;;;;10.68;82.03;102125.72;5048459;28;1348;-77
2023/06/05 04:00:28;;;;;;;;;;;;;;;10.68;80.74;102125.72;5043622;28;1351;-77
2023/06/05 04:02:53;;;;;;;;;;;;;;;10.68;80.65;102125.72;5043723;28;1493;-77
2023/06/05 04:05:18;;;;;;;;;;;;;;;10.70;83.16;102134.25;5048571;28;1552;-78
2023/06/05 04:07:43;;;;;;;;;;;;;;;10.70;80.83;102119.50;5047518;28;1359;-77
2023/06/05 04:10:09;;;;;;;;;;;;;;;10.73;80.81;102123.69;5043810;28;1174;-77
2023/06/05 04:12:34;;;;;;;;;;;;;;;10.72;81.18;102116.81;5043691;28;1339;-77
2023/06/05 04:14:59;;;;;;;;;;;;;;;10.68;82.25;102110.16;5049383;28;1368;-77
2023/06/05 04:17:25;;;;;;;;;;;;;;;10.66;81.52;102123.19;5044740;28;1965;-77
2023/06/05 04:19:50;;;;;;;;;;;;;;;10.67;81.82;102124.03;5050318;28;1528;-76
2023/06/05 04:22:15;;;;;;;;;;;;;;;10.67;81.83;102119.72;5048480;28;1482;-77
2023/06/05 04:24:41;;;;;;;;;;;;;;;10.67;83.25;102113.66;5046382;28;1169;-76
2023/06/05 04:27:08;;;;;;;;;;;;;;;10.67;81.73;102118.84;5050346;28;1071;-77
2023/06/05 04:29:33;;;;;;;;;;;;;;;10.61;82.03;102120.91;5043477;28;1312;-77
2023/06/05 04:31:59;;;;;;;;;;;;;;;10.62;82.54;102119.97;5049970;28;1604;-77
2023/06/05 04:34:25;;;;;;;;;;;;;;;10.63;82.70;102121.66;5054468;28;1388;-76
2023/06/05 04:36:51;;;;;;;;;;;;;;;10.59;83.46;102133.13;5049668;28;1894;-77
2023/06/05 04:39:18;;;;;;;;;;;;;;;10.56;82.66;102130.75;5051345;28;1459;-78
2023/06/05 04:41:45;;;;;;;;;;;;;;;10.59;82.67;102130.53;5049228;28;1369;-77
2023/06/05 04:44:13;;;;;;;;;;;;;;;10.58;82.79;102135.81;5052486;28;1505;-77
2023/06/05 04:46:39;;;;;;;;;;;;;;;10.55;83.26;102142.03;5047790;28;1173;-77
2023/06/05 04:49:06;;;;;;;;;;;;;;;10.55;84.46;102142.03;5047630;28;1167;-75
2023/06/05 04:51:31;;;;;;;;;;;;;;;10.51;84.19;102135.38;5047008;28;1345;-78
2023/06/05 04:53:56;;;;;;;;;;;;;;;10.57;83.94;102145.38;5052511;28;1487;-75
2023/06/05 04:56:22;;;;;;;;;;;;;;;10.59;83.80;102137.50;5048703;28;1890;-77
2023/06/05 04:58:47;;;;;;;;;;;;;;;10.63;83.46;102150.19;5047742;28;1343;-77
2023/06/05 05:01:13;;;;;;;;;;;;;;;10.64;84.90;102146.66;5047737;28;1590;-77
2023/06/05 05:03:38;;;;;;;;;;;;;;;10.66;83.14;102148.31;5047806;28;1308;-78
2023/06/05 05:06:04;;;;;;;;;;;;;;;10.66;85.36;102145.72;5047513;28;1560;-78
2023/06/05 05:08:31;;;;;;;;;;;;;;;10.68;83.38;102151.69;5048403;28;1229;-77
2023/06/05 05:10:56;;;;;;;;;;;;;;;10.74;83.61;102156.50;5041986;28;1442;-79
2023/06/05 05:13:21;;;;;;;;;;;;;;;10.74;84.34;102148.72;5047146;28;1542;-78
2023/06/05 05:15:47;;;;;;;;;;;;;;;10.75;83.79;102153.78;5037604;28;1963;-76
2023/06/05 05:18:12;;;;;;;;;;;;;;;10.79;84.14;102154.44;5045616;28;1349;-76
2023/06/05 05:20:38;;;;;;;;;;;;;;;10.78;84.33;102153.63;5046139;28;1256;-77
2023/06/05 05:23:03;;;;;;;;;;;;;;;10.78;83.57;102151.03;5047251;28;1362;-76
2023/06/05 05:25:29;;;;;;;;;;;;;;;10.86;84.49;102153.13;5060589;28;1282;-77
2023/06/05 05:27:54;;;;;;;;;;;;;;;10.91;84.18;102143.31;5046936;28;1259;-76
2023/06/05 05:30:19;;;;;;;;;;;;;;;10.93;84.90;102151.81;5043123;28;1124;-77
2023/06/05 05:32:45;;;;;;;;;;;;;;;10.98;83.64;102148.94;5044076;28;1266;-76
2023/06/05 05:35:10;;;;;;;;;;;;;;;11.00;84.89;102153.09;5043751;28;1173;-77
2023/06/05 05:37:36;;;;;;;;;;;;;;;11.03;85.32;102147.75;5047117;28;1967;-77
2023/06/05 05:40:01;;;;;;;;;;;;;;;11.06;83.92;102142.34;5047454;28;1419;-77
2023/06/05 05:42:26;;;;;;;;;;;;;;;11.11;84.51;102145.47;5045575;28;1396;-77
2023/06/05 05:44:51;;;;;;;;;;;;;;;11.16;85.01;102153.81;5046361;28;1529;-77
2023/06/05 05:47:16;;;;;;;;;;;;;;;11.16;84.48;102151.22;5048789;28;1211;-77
2023/06/05 05:49:42;;;;;;;;;;;;;;;11.19;83.99;102149.38;5048321;28;1228;-77
2023/06/05 05:52:07;;;;;;;;;;;;;;;11.26;84.11;102153.25;5047179;28;1438;-77
2023/06/05 05:54:32;;;;;;;;;;;;;;;11.34;83.49;102156.19;5049627;28;1127;-77
2023/06/05 05:56:57;;;;;;;;;;;;;;;11.44;83.00;102149.47;5044260;28;1967;-77
2023/06/05 05:59:23;;;;;;;;;;;;;;;11.49;82.89;102150.03;5047817;28;1247;-77
2023/06/05 06:01:51;;;;;;;;;;;;;;;11.59;83.19;102151.09;5043093;28;1472;-76
2023/06/05 06:04:17;;;;;;;;;;;;;;;11.69;83.12;102156.50;5042565;28;1464;-76
2023/06/05 06:06:43;;;;;;;;;;;;;;;11.79;82.37;102151.56;5062995;28;1303;-76
2023/06/05 06:09:08;;;;;;;;;;;;;;;11.88;81.95;102145.81;5042933;28;1233;-77
2023/06/05 06:11:36;;;;;;;;;;;;;;;11.97;81.74;102150.38;5046364;28;1386;-76
2023/06/05 06:14:01;;;;;;;;;;;;;;;11.99;81.30;102152.91;5049904;28;1883;-77
2023/06/05 06:16:27;;;;;;;;;;;;;;;11.99;81.62;102153.72;5051931;28;1969;-77
2023/06/05 06:18:52;;;;;;;;;;;;;;;12.01;80.53;102151.84;5045991;28;1717;-76
2023/06/05 06:21:18;;;;;;;;;;;;;;;12.05;80.96;102152.47;5045477;28;1683;-76
2023/06/05 06:23:44;;;;;;;;;;;;;;;12.14;80.76;102152.69;5049079;28;1329;-76
2023/06/05 06:26:10;;;;;;;;;;;;;;;12.26;81.30;102158.00;5048458;28;1107;-76
2023/06/05 06:28:35;;;;;;;;;;;;;;;12.36;81.01;102161.66;5046347;28;1235;-77
2023/06/05 06:31:00;;;;;;;;;;;;;;;12.42;80.23;102156.03;5044322;28;1537;-77
2023/06/05 06:33:25;;;;;;;;;;;;;;;12.43;79.47;102162.88;5044080;28;1297;-77
2023/06/05 06:35:51;;;;;;;;;;;;;;;12.47;79.83;102165.19;5042782;28;1905;-76
2023/06/05 06:38:16;;;;;;;;;;;;;;;12.56;79.48;102157.66;5043078;28;1303;-76
2023/06/05 06:40:42;;;;;;;;;;;;;;;12.63;79.53;102158.94;5055744;28;1553;-76
2023/06/05 06:43:07;;;;;;;;;;;;;;;12.66;78.51;102159.53;5043502;28;1420;-77
2023/06/05 06:45:32;;;;;;;;;;;;;;;12.66;78.94;102154.34;5046995;28;1278;-75
2023/06/05 06:47:57;;;;;;;;;;;;;;;12.69;78.89;102164.56;5049343;28;1172;-77
2023/06/05 06:50:23;;;;;;;;;;;;;;;12.77;78.33;102151.81;5043726;28;1229;-77
2023/06/05 06:52:48;;;;;;;;;;;;;;;12.88;78.71;102155.44;5046446;28;1229;-76
2023/06/05 06:55:13;;;;;;;;;;;;;;;12.94;78.20;102157.63;5044767;28;1867;-77
2023/06/05 06:57:38;;;;;;;;;;;;;;;12.98;76.91;102156.47;5038474;28;1901;-76
2023/06/05 07:00:08;;;;;;;;;;;;;;;13.02;76.46;102155.34;5043275;28;1397;-76
2023/06/05 07:02:33;;;;;;;;;;;;;;;13.11;77.12;102159.03;5041494;28;1319;-76
2023/06/05 07:04:58;;;;;;;;;;;;;;;13.24;77.15;102165.88;5041996;28;1702;-77
2023/06/05 07:07:24;;;;;;;;;;;;;;;13.35;76.42;102165.13;5041700;28;1103;-77
2023/06/05 07:09:51;;;;;;;;;;;;;;;13.44;76.54;102166.25;5040797;28;1537;-77
2023/06/05 07:12:19;;;;;;;;;;;;;;;13.54;76.03;102167.25;5039846;28;1257;-76
2023/06/05 07:14:44;;;;;;;;;;;;;;;13.63;74.39;102161.34;5046941;28;1628;-77
2023/06/05 07:17:09;;;;;;;;;;;;;;;13.68;74.42;102164.47;5043376;28;1912;-76
2023/06/05 07:19:36;;;;;;;;;;;;;;;13.73;73.91;102166.75;5034938;28;1348;-76
2023/06/05 07:22:04;;;;;;;;;;;;;;;13.80;74.30;102168.78;5044528;28;1362;-77
2023/06/05 07:24:30;;;;;;;;;;;;;;;13.92;73.95;102167.03;5041405;28;1145;-76
2023/06/05 07:26:56;;;;;;;;;;;;;;;14.06;73.57;102168.63;5044932;28;1405;-76
2023/06/05 07:29:24;;;;;;;;;;;;;;;14.14;73.28;102155.81;5043012;28;1623;-76
2023/06/05 07:31:50;;;;;;;;;;;;;;;14.25;72.70;102163.66;5036094;28;1584;-76
2023/06/05 07:34:17;;;;;;;;;;;;;;;14.34;72.66;102173.44;5036316;28;1301;-76
2023/06/05 07:36:44;;;;;;;;;;;;;;;14.45;71.71;102177.84;5046296;28;1906;-77
2023/06/05 07:39:09;;;;;;;;;;;;;;;14.50;71.20;102173.09;5042432;28;1207;-76
2023/06/05 07:41:35;;;;;;;;;;;;;;;14.57;72.03;102173.47;5041769;28;1213;-77
2023/06/05 07:44:00;;;;;;;;;;;;;;;14.68;71.76;102186.53;5041006;28;1215;-77
2023/06/05 07:46:25;;;;;;;;;;;;;;;14.80;71.78;102179.53;5044489;28;1264;-76
2023/06/05 07:48:50;;;;;;;;;;;;;;;14.90;68.82;102169.19;5039557;28;955;-76
2023/06/05 07:51:18;;;;;;;;;;;;;;;14.86;68.19;102166.00;5057955;28;1259;-77
2023/06/05 07:53:43;;;;;;;;;;;;;;;14.94;70.18;102170.59;5043930;28;1298;-77
2023/06/05 07:56:08;;;;;;;;;;;;;;;15.07;69.83;102172.13;5045307;28;1909;-76
2023/06/05 07:58:34;;;;;;;;;;;;;;;15.12;68.79;102171.75;5043013;28;1386;-77
2023/06/05 08:01:00;;;;;;;;;;;;;;;15.19;69.98;102170.31;5041826;28;1429;-77
2023/06/05 08:03:25;;;;;;;;;;;;;;;15.26;69.32;102170.69;5040490;28;1310;-77
2023/06/05 08:05:50;;;;;;;;;;;;;;;15.33;69.80;102177.06;5044868;28;1555;-76
2023/06/05 08:08:16;;;;;;;;;;;;;;;15.41;68.65;102170.25;5040532;28;1306;-76
2023/06/05 08:10:41;;;;;;;;;;;;;;;15.50;69.23;102183.56;5041358;28;1345;-77
2023/06/05 08:13:10;;;;;;;;;;;;;;;15.64;68.97;102171.03;5046873;28;1545;-77
2023/06/05 08:15:35;;;;;;;;;;;;;;;15.71;67.67;102170.53;5046346;28;1234;-76
2023/06/05 08:18:01;;;;;;;;;;;;;;;15.80;68.53;102164.56;5042228;28;1951;-77
2023/06/05 08:20:26;;;;;;;;;;;;;;;15.91;68.30;102170.56;5042077;28;1184;-77
2023/06/05 08:22:51;;;;;;;;;;;;;;;15.98;67.70;102151.72;5045155;28;1270;-77
2023/06/05 08:25:16;;;;;;;;;;;;;;;16.04;68.32;102157.28;5047152;28;1322;-78
2023/06/05 08:27:41;;;;;;;;;;;;;;;16.19;68.45;102155.19;5039929;28;1240;-77
2023/06/05 08:30:08;;;;;;;;;;;;;;;16.31;66.89;102154.13;5038540;28;1244;-76
2023/06/05 08:32:33;;;;;;;;;;;;;;;16.37;66.64;102151.00;5038277;28;1382;-77
2023/06/05 08:34:58;;;;;;;;;;;;;;;16.49;67.65;102151.72;5045584;28;1360;-77
2023/06/05 08:37:23;;;;;;;;;;;;;;;16.62;66.93;102151.50;5045263;28;1953;-77
2023/06/05 08:39:50;;;;;;;;;;;;;;;16.65;65.60;102148.63;5038068;28;1358;-77
2023/06/05 08:42:18;;;;;;;;;;;;;;;16.67;65.34;102139.66;5047530;28;1217;-76
2023/06/05 08:44:43;;;;;;;;;;;;;;;16.77;65.23;102141.53;5047228;28;1286;-78
2023/06/05 08:47:09;;;;;;;;;;;;;;;16.77;65.25;102137.13;5052176;28;1185;-78
2023/06/05 08:49:37;;;;;;;;;;;;;;;16.83;65.53;102143.63;5049147;28;1352;-77
2023/06/05 08:52:05;;;;;;;;;;;;;;;16.99;66.07;102129.03;5043685;28;1080;-77
2023/06/05 08:54:41;;;;;;;;;;;;;;;17.17;65.62;102128.38;5045969;28;1540;-77
2023/06/05 08:57:06;;;;;;;;;;;;;;;17.29;64.90;102129.91;5049052;28;1968;-77
2023/06/05 08:59:32;;;;;;;;;;;;;;;17.40;64.34;102121.91;5047681;28;1199;-78
2023/06/05 09:01:57;;;;;;;;;;;;;;;17.51;64.73;102124.38;5049051;28;1526;-77
2023/06/05 09:04:24;;;;;;;;;;;;;;;17.56;64.51;102121.34;5040721;28;1599;-78
2023/06/05 09:06:51;;;;;;;;;;;;;;;17.56;62.37;102120.53;5049430;28;1212;-77
2023/06/05 09:09:17;;;;;;;;;;;;;;;17.48;62.80;102118.56;5048522;28;1117;-78
2023/06/05 09:11:42;;;;;;;;;;;;;;;17.47;62.36;102123.00;5046572;28;1263;-77
2023/06/05 09:14:07;;;;;;;;;;;;;;;17.55;63.38;102118.84;5041263;28;1456;-76
2023/06/05 09:16:41;;;;;;;;;;;;;;;17.72;64.31;102121.66;5046978;28;1951;-77
2023/06/05 09:19:07;;;;;;;;;;;;;;;17.83;61.90;102125.88;5042807;28;1425;-77
2023/06/05 09:21:32;;;;;;;;;;;;;;;17.89;61.98;102132.38;5047961;28;1285;-77
2023/06/05 09:24:17;;;;;;;;;;;;;;;17.92;62.23;102127.69;5045712;28;1802;-77
2023/06/05 09:26:58;;;;;;;;;;;;;;;18.06;61.31;102123.75;5045450;28;1302;-78
2023/06/05 09:29:31;;;;;;;;;;;;;;;18.16;61.77;102123.75;5047162;28;1546;-78
2023/06/05 09:31:57;;;;;;;;;;;;;;;18.25;61.42;102121.09;5045658;28;1327;-77
2023/06/05 09:34:23;;;;;;;;;;;;;;;18.38;61.26;102126.00;5047140;28;1631;-77
2023/06/05 09:36:49;;;;;;;;;;;;;;;18.45;60.15;102119.19;5047213;28;1979;-77
2023/06/05 09:39:15;;;;;;;;;;;;;;;18.49;61.12;102119.75;5045731;28;1365;-77
2023/06/05 09:41:47;;;;;;;;;;;;;;;18.51;59.91;102113.38;5044684;28;1285;-78
2023/06/05 09:44:12;;;;;;;;;;;;;;;18.57;60.53;102120.66;5048022;28;1450;-77
2023/06/05 09:46:53;;;;;;;;;;;;;;;18.65;60.28;102113.88;5047075;28;1151;-77
2023/06/05 09:49:18;;;;;;;;;;;;;;;18.75;59.57;102114.66;5045926;28;1482;-76
2023/06/05 09:51:43;;;;;;;;;;;;;;;18.82;59.65;102115.75;5043075;28;1156;-76
2023/06/05 09:54:09;;;;;;;;;;;;;;;18.98;59.04;102115.91;5039973;28;1494;-76
2023/06/05 09:56:34;;;;;;;;;;;;;;;19.08;58.86;102116.66;5045292;28;1944;-77
2023/06/05 09:59:00;;;;;;;;;;;;;;;19.23;58.86;102110.91;5043161;28;1766;-76
2023/06/05 10:01:28;;;;;;;;;;;;;;;19.32;57.61;102102.91;5045444;28;1250;-77
2023/06/05 10:03:57;;;;;;;;;;;;;;;19.37;57.66;102105.09;5040430;28;1309;-77
2023/06/05 10:06:23;;;;;;;;;;;;;;;19.42;57.10;102112.53;5041874;28;1263;-77
2023/06/05 10:08:52;;;;;;;;;;;;;;;19.50;58.01;102108.19;5046180;28;1395;-77
2023/06/05 10:11:18;;;;;;;;;;;;;;;19.54;57.94;102101.59;5041913;28;1330;-77
2023/06/05 10:13:45;;;;;;;;;;;;;;;19.54;57.39;102106.88;5048002;28;1482;-77
2023/06/05 10:16:10;;;;;;;;;;;;;;;19.59;57.31;102096.75;5042415;28;1890;-78
2023/06/05 10:18:36;;;;;;;;;;;;;;;19.65;55.98;102094.47;5043533;28;1123;-78
2023/06/05 10:21:01;;;;;;;;;;;;;;;19.73;55.52;102091.94;5046341;28;1223;-77
2023/06/05 10:23:27;;;;;;;;;;;;;;;19.76;56.98;102096.88;5047287;28;1580;-77
2023/06/05 10:25:53;;;;;;;;;;;;;;;19.87;57.17;102093.97;5034165;28;1439;-77
2023/06/05 10:28:37;;;;;;;;;;;;;;;19.96;56.09;102090.44;5042942;28;1222;-77
2023/06/05 10:31:13;;;;;;;;;;;;;;;19.96;56.07;102087.78;5035210;28;1431;-76
2023/06/05 10:33:47;;;;;;;;;;;;;;;19.91;54.88;102091.88;5041304;28;1538;-77
2023/06/05 10:36:19;;;;;;;;;;;;;;;19.94;55.62;102086.28;5038613;28;1890;-77
2023/06/05 10:38:44;;;;;;;;;;;;;;;20.01;55.30;102093.38;5047012;28;1044;-77
2023/06/05 10:41:10;;;;;;;;;;;;;;;20.12;55.61;102087.84;5046887;28;1387;-76
2023/06/05 10:43:44;;;;;;;;;;;;;;;20.20;55.22;102081.00;5038197;28;1534;-77
2023/06/05 10:46:29;;;;;;;;;;;;;;;20.34;54.76;102088.28;5046868;28;1597;-77
2023/06/05 10:49:15;;;;;;;;;;;;;;;20.41;54.68;102094.56;5049499;28;1275;-77
2023/06/05 10:51:42;;;;;;;;;;;;;;;20.47;54.01;102082.59;5043670;28;1221;-77
2023/06/05 10:54:09;;;;;;;;;;;;;;;20.56;53.47;102082.47;5045112;28;1607;-77
2023/06/05 10:56:53;;;;;;;;;;;;;;;20.64;55.26;102079.88;5042211;28;1886;-77
2023/06/05 10:59:22;;;;;;;;;;;;;;;20.75;54.38;102077.91;5046728;28;1026;-77
2023/06/05 11:04:46;;;;;;;;;;;;;;;20.95;53.78;102076.63;5048226;28;1426;-77
2023/06/05 11:07:17;;;;;;;;;;;;;;;21.01;53.54;102081.25;5045954;28;1402;-77
2023/06/05 11:10:01;;;;;;;;;;;;;;;21.08;53.37;102079.63;5043060;28;1223;-77
2023/06/05 11:12:26;;;;;;;;;;;;;;;21.09;53.62;102078.63;5043259;28;1235;-77
2023/06/05 11:14:51;;;;;;;;;;;;;;;21.17;52.44;102065.44;5045770;28;1273;-76
2023/06/05 11:17:27;;;;;;;;;;;;;;;21.25;52.22;102066.44;5041928;28;1953;-77
2023/06/05 11:19:52;;;;;;;;;;;;;;;21.28;51.91;102060.84;5045936;28;1450;-77
2023/06/05 11:22:17;;;;;;;;;;;;;;;21.30;51.52;102064.16;5041676;28;1295;-77
2023/06/05 11:24:43;;;;;;;;;;;;;;;21.44;52.04;102066.13;5060780;28;1523;-78
2023/06/05 11:27:28;;;;;;;;;;;;;;;21.52;52.59;102057.38;5045008;28;1584;-78
2023/06/05 11:29:54;;;;;;;;;;;;;;;21.59;50.52;102059.19;5054186;28;1608;-77
2023/06/05 11:32:19;;;;;;;;;;;;;;;21.63;51.38;102055.22;5037153;28;1236;-77
2023/06/05 11:34:47;;;;;;;;;;;;;;;21.68;51.18;102062.63;5046778;28;1219;-77
2023/06/05 11:37:17;;;;;;;;;;;;;;;21.72;51.09;102051.56;5046435;28;1894;-78
2023/06/05 11:39:43;;;;;;;;;;;;;;;21.80;51.86;102053.38;5046209;28;1265;-76
2023/06/05 11:42:08;;;;;;;;;;;;;;;21.68;50.95;102050.25;5045621;28;1350;-77
2023/06/05 11:44:35;;;;;;;;;;;;;;;21.74;51.48;102040.84;5041782;28;1332;-77
2023/06/05 11:47:00;;;;;;;;;;;;;;;21.78;51.67;102049.22;5039991;28;1618;-76
2023/06/05 11:49:27;;;;;;;;;;;;;;;21.87;51.21;102041.13;5039612;28;1298;-78
2023/06/05 11:51:52;;;;;;;;;;;;;;;21.93;49.74;102047.53;5045976;28;1136;-76
2023/06/05 11:54:30;;;;;;;;;;;;;;;21.93;50.70;102044.91;5044022;28;1415;-76
2023/06/05 11:56:56;;;;;;;;;;;;;;;21.87;49.15;102045.59;5046319;28;1949;-76
2023/06/05 11:59:23;;;;;;;;;;;;;;;21.90;50.41;102045.22;5039920;28;1188;-76
2023/06/05 12:01:50;;;;;;;;;;;;;;;22.00;49.55;102040.59;5043162;28;1348;-77
2023/06/05 12:04:15;;;;;;;;;;;;;;;22.04;49.95;102031.31;5038674;28;1432;-76
2023/06/05 12:06:41;;;;;;;;;;;;;;;22.04;49.51;102036.59;5040466;28;1310;-77
2023/06/05 12:09:11;;;;;;;;;;;;;;;22.06;49.59;102036.44;5044179;28;1684;-77
2023/06/05 12:11:37;;;;;;;;;;;;;;;22.09;49.92;102033.47;5044733;28;1550;-76
2023/06/05 12:14:03;;;;;;;;;;;;;;;22.15;48.97;102028.34;5047761;28;1549;-76
2023/06/05 12:16:35;;;;;;;;;;;;;;;22.17;49.91;102028.97;5040620;28;1985;-78
2023/06/05 12:19:01;;;;;;;;;;;;;;;22.21;49.81;102027.66;5048159;28;1223;-77
2023/06/05 12:21:27;;;;;;;;;;;;;;;22.26;48.78;102035.88;5041858;28;1431;-77
2023/06/05 12:24:03;;;;;;;;;;;;;;;22.27;49.01;102023.50;5047655;28;1556;-76
2023/06/05 12:26:33;;;;;;;;;;;;;;;22.33;48.96;102024.63;5043425;28;1263;-77
2023/06/05 12:29:03;;;;;;;;;;;;;;;22.40;48.38;102025.56;5048774;28;1636;-78
2023/06/05 12:31:31;;;;;;;;;;;;;;;22.45;49.48;102026.69;5043661;28;1704;-77
2023/06/05 12:33:57;;;;;;;;;;;;;;;22.45;47.92;102025.88;5050580;28;1293;-76
2023/06/05 12:36:22;;;;;;;;;;;;;;;22.44;47.66;102021.59;5047106;28;1894;-76
2023/06/05 12:38:47;;;;;;;;;;;;;;;22.57;49.09;102021.84;5048816;28;1393;-77
2023/06/05 12:41:12;;;;;;;;;;;;;;;22.63;48.72;102013.19;5045773;28;1578;-77
2023/06/05 12:43:38;;;;;;;;;;;;;;;22.63;47.15;102015.84;5045704;28;1254;-77
2023/06/05 12:46:05;;;;;;;;;;;;;;;22.63;48.01;102012.38;5047792;28;1200;-76
2023/06/05 12:48:31;;;;;;;;;;;;;;;22.58;48.38;102018.19;5053422;28;1272;-76